sensor_id;sensor_type;location;lat;lon;timestamp;P1;durP1;ratioP1;P2;durP2;ratioP2
56130;SDS011;42000;44.774;20.506;2022-10-16T17:26:38;26.60;;;11.98;;
56130;SDS011;42000;44.774;20.506;2022-10-16T17:29:09;26.38;;;12.55;;
56130;SDS011;42000;44.774;20.506;2022-10-16T17:31:36;24.52;;;11.98;;
56130;SDS011;42000;44.774;20.506;2022-10-16T17:34:03;25.42;;;12.90;;
56130;SDS011;42000;44.774;20.506;2022-10-16T17:36:30;24.00;;;11.60;;
56130;SDS011;42000;44.774;20.506;2022-10-16T17:39:01;26.52;;;12.43;;
56130;SDS011;42000;44.774;20.506;2022-10-16T17:41:29;21.58;;;11.88;;
56130;SDS011;42000;44.774;20.506;2022-10-16T17:43:55;23.85;;;11.55;;
56130;SDS011;42000;44.774;20.506;2022-10-16T17:46:22;27.85;;;12.57;;
56130;SDS011;42000;44.774;20.506;2022-10-16T17:48:49;21.88;;;12.48;;
56130;SDS011;42000;44.774;20.506;2022-10-16T17:51:19;28.75;;;12.68;;
56130;SDS011;42000;44.774;20.506;2022-10-16T17:53:52;22.98;;;12.77;;
56130;SDS011;42000;44.774;20.506;2022-10-16T17:56:19;27.77;;;13.98;;
56130;SDS011;42000;44.774;20.506;2022-10-16T17:58:51;26.63;;;14.35;;
56130;SDS011;42000;44.774;20.506;2022-10-16T18:01:24;31.25;;;15.57;;
56130;SDS011;42000;44.774;20.506;2022-10-16T18:03:54;30.30;;;15.45;;
56130;SDS011;42000;44.774;20.506;2022-10-16T18:06:21;27.38;;;13.90;;
56130;SDS011;42000;44.774;20.506;2022-10-16T18:08:47;29.33;;;14.85;;
56130;SDS011;42000;44.774;20.506;2022-10-16T18:11:13;24.80;;;14.20;;
56130;SDS011;42000;44.774;20.506;2022-10-16T18:13:39;27.33;;;14.00;;
56130;SDS011;42000;44.774;20.506;2022-10-16T18:16:06;26.10;;;14.27;;
56130;SDS011;42000;44.774;20.506;2022-10-16T18:18:36;23.80;;;13.98;;
56130;SDS011;42000;44.774;20.506;2022-10-16T18:21:04;24.45;;;13.10;;
56130;SDS011;42000;44.774;20.506;2022-10-16T18:23:31;29.25;;;14.15;;
56130;SDS011;42000;44.774;20.506;2022-10-16T18:25:57;26.13;;;14.00;;
56130;SDS011;42000;44.774;20.506;2022-10-16T18:28:23;26.52;;;13.63;;
56130;SDS011;42000;44.774;20.506;2022-10-16T18:30:53;28.95;;;13.60;;
56130;SDS011;42000;44.774;20.506;2022-10-16T18:33:20;28.30;;;14.38;;
56130;SDS011;42000;44.774;20.506;2022-10-16T18:35:46;27.45;;;14.77;;
56130;SDS011;42000;44.774;20.506;2022-10-16T18:38:12;34.08;;;16.27;;
56130;SDS011;42000;44.774;20.506;2022-10-16T18:40:38;31.52;;;16.05;;
56130;SDS011;42000;44.774;20.506;2022-10-16T18:43:04;30.30;;;15.95;;
56130;SDS011;42000;44.774;20.506;2022-10-16T18:45:30;28.35;;;13.93;;
56130;SDS011;42000;44.774;20.506;2022-10-16T18:47:56;24.42;;;13.52;;
56130;SDS011;42000;44.774;20.506;2022-10-16T18:50:22;23.95;;;13.23;;
56130;SDS011;42000;44.774;20.506;2022-10-16T18:52:48;27.63;;;13.55;;
56130;SDS011;42000;44.774;20.506;2022-10-16T18:55:15;24.70;;;13.13;;
56130;SDS011;42000;44.774;20.506;2022-10-16T18:57:41;25.58;;;13.68;;
56130;SDS011;42000;44.774;20.506;2022-10-16T19:00:07;23.48;;;13.38;;
56130;SDS011;42000;44.774;20.506;2022-10-16T19:02:33;22.45;;;13.48;;
56130;SDS011;42000;44.774;20.506;2022-10-16T19:04:59;27.05;;;13.60;;
56130;SDS011;42000;44.774;20.506;2022-10-16T19:07:26;22.25;;;13.32;;
56130;SDS011;42000;44.774;20.506;2022-10-16T19:09:52;23.45;;;13.80;;
56130;SDS011;42000;44.774;20.506;2022-10-16T19:12:18;25.30;;;14.35;;
56130;SDS011;42000;44.774;20.506;2022-10-16T19:14:46;24.52;;;14.38;;
56130;SDS011;42000;44.774;20.506;2022-10-16T19:17:12;26.27;;;14.70;;
56130;SDS011;42000;44.774;20.506;2022-10-16T19:19:38;28.45;;;15.82;;
56130;SDS011;42000;44.774;20.506;2022-10-16T19:22:05;30.05;;;15.55;;
56130;SDS011;42000;44.774;20.506;2022-10-16T19:24:52;31.63;;;16.23;;
56130;SDS011;42000;44.774;20.506;2022-10-16T19:27:18;33.05;;;15.98;;
56130;SDS011;42000;44.774;20.506;2022-10-16T19:29:44;26.17;;;14.10;;
56130;SDS011;42000;44.774;20.506;2022-10-16T19:32:10;23.60;;;13.73;;
56130;SDS011;42000;44.774;20.506;2022-10-16T19:34:36;23.92;;;12.27;;
56130;SDS011;42000;44.774;20.506;2022-10-16T19:37:02;26.02;;;12.43;;
56130;SDS011;42000;44.774;20.506;2022-10-16T19:39:28;24.75;;;12.70;;
56130;SDS011;42000;44.774;20.506;2022-10-16T19:41:54;18.65;;;11.40;;
56130;SDS011;42000;44.774;20.506;2022-10-16T19:44:20;23.10;;;11.18;;
56130;SDS011;42000;44.774;20.506;2022-10-16T19:46:46;20.10;;;11.13;;
56130;SDS011;42000;44.774;20.506;2022-10-16T19:49:13;20.23;;;11.07;;
56130;SDS011;42000;44.774;20.506;2022-10-16T19:51:41;22.10;;;11.15;;
56130;SDS011;42000;44.774;20.506;2022-10-16T19:54:10;21.92;;;11.65;;
56130;SDS011;42000;44.774;20.506;2022-10-16T19:56:37;19.38;;;11.13;;
56130;SDS011;42000;44.774;20.506;2022-10-16T19:59:03;24.83;;;11.43;;
56130;SDS011;42000;44.774;20.506;2022-10-16T20:01:30;18.90;;;11.30;;
56130;SDS011;42000;44.774;20.506;2022-10-16T20:03:56;23.00;;;12.48;;
56130;SDS011;42000;44.774;20.506;2022-10-16T20:06:23;19.95;;;11.07;;
56130;SDS011;42000;44.774;20.506;2022-10-16T20:08:49;25.67;;;12.63;;
56130;SDS011;42000;44.774;20.506;2022-10-16T20:11:17;22.23;;;11.93;;
56130;SDS011;42000;44.774;20.506;2022-10-16T20:13:43;22.50;;;11.57;;
56130;SDS011;42000;44.774;20.506;2022-10-16T20:16:10;20.58;;;11.70;;
56130;SDS011;42000;44.774;20.506;2022-10-16T20:18:36;23.70;;;11.13;;
56130;SDS011;42000;44.774;20.506;2022-10-16T20:21:07;27.55;;;12.52;;
56130;SDS011;42000;44.774;20.506;2022-10-16T20:23:33;20.77;;;11.70;;
56130;SDS011;42000;44.774;20.506;2022-10-16T20:25:59;22.45;;;11.80;;
56130;SDS011;42000;44.774;20.506;2022-10-16T20:28:25;21.95;;;11.90;;
56130;SDS011;42000;44.774;20.506;2022-10-16T20:30:51;19.10;;;11.32;;
56130;SDS011;42000;44.774;20.506;2022-10-16T20:33:18;23.23;;;12.45;;
56130;SDS011;42000;44.774;20.506;2022-10-16T20:35:45;18.60;;;11.20;;
56130;SDS011;42000;44.774;20.506;2022-10-16T20:38:11;21.33;;;11.63;;
56130;SDS011;42000;44.774;20.506;2022-10-16T20:40:38;25.13;;;11.40;;
56130;SDS011;42000;44.774;20.506;2022-10-16T20:43:05;22.45;;;11.48;;
56130;SDS011;42000;44.774;20.506;2022-10-16T20:45:31;21.98;;;11.32;;
56130;SDS011;42000;44.774;20.506;2022-10-16T20:47:57;20.88;;;11.07;;
56130;SDS011;42000;44.774;20.506;2022-10-16T20:50:24;19.83;;;11.02;;
56130;SDS011;42000;44.774;20.506;2022-10-16T20:52:50;21.38;;;11.05;;
56130;SDS011;42000;44.774;20.506;2022-10-16T20:55:16;18.67;;;11.15;;
56130;SDS011;42000;44.774;20.506;2022-10-16T20:57:42;20.45;;;10.80;;
56130;SDS011;42000;44.774;20.506;2022-10-16T21:00:08;16.90;;;10.15;;
56130;SDS011;42000;44.774;20.506;2022-10-16T21:02:34;22.67;;;11.68;;
56130;SDS011;42000;44.774;20.506;2022-10-16T21:05:00;19.63;;;11.02;;
56130;SDS011;42000;44.774;20.506;2022-10-16T21:07:27;20.50;;;11.23;;
56130;SDS011;42000;44.774;20.506;2022-10-16T21:09:53;18.15;;;10.82;;
56130;SDS011;42000;44.774;20.506;2022-10-16T21:17:24;20.55;;;11.20;;
56130;SDS011;42000;44.774;20.506;2022-10-16T21:19:51;23.38;;;11.75;;
56130;SDS011;42000;44.774;20.506;2022-10-16T21:22:17;22.40;;;11.10;;
56130;SDS011;42000;44.774;20.506;2022-10-16T21:24:43;20.48;;;10.40;;
56130;SDS011;42000;44.774;20.506;2022-10-16T21:27:09;20.50;;;10.90;;
56130;SDS011;42000;44.774;20.506;2022-10-16T21:29:35;18.80;;;11.00;;
56130;SDS011;42000;44.774;20.506;2022-10-16T21:32:01;21.90;;;11.18;;
56130;SDS011;42000;44.774;20.506;2022-10-16T21:34:27;20.13;;;11.88;;
56130;SDS011;42000;44.774;20.506;2022-10-16T21:36:53;18.77;;;10.45;;
56130;SDS011;42000;44.774;20.506;2022-10-16T21:39:19;20.45;;;11.05;;
56130;SDS011;42000;44.774;20.506;2022-10-16T21:41:48;18.88;;;10.32;;
56130;SDS011;42000;44.774;20.506;2022-10-16T21:44:14;21.90;;;10.63;;
56130;SDS011;42000;44.774;20.506;2022-10-16T21:46:41;19.20;;;10.68;;
56130;SDS011;42000;44.774;20.506;2022-10-16T21:49:11;17.90;;;11.18;;
56130;SDS011;42000;44.774;20.506;2022-10-16T21:51:38;19.10;;;10.63;;
56130;SDS011;42000;44.774;20.506;2022-10-16T21:54:06;20.73;;;10.77;;
56130;SDS011;42000;44.774;20.506;2022-10-16T21:56:32;21.80;;;10.45;;
56130;SDS011;42000;44.774;20.506;2022-10-16T21:58:59;21.80;;;10.73;;
56130;SDS011;42000;44.774;20.506;2022-10-16T22:01:25;18.05;;;10.55;;
56130;SDS011;42000;44.774;20.506;2022-10-16T22:03:52;19.05;;;10.20;;
56130;SDS011;42000;44.774;20.506;2022-10-16T22:06:19;16.90;;;9.98;;
56130;SDS011;42000;44.774;20.506;2022-10-16T22:08:46;16.95;;;10.18;;
56130;SDS011;42000;44.774;20.506;2022-10-16T22:11:14;19.58;;;9.85;;
56130;SDS011;42000;44.774;20.506;2022-10-16T22:13:41;16.92;;;9.88;;
56130;SDS011;42000;44.774;20.506;2022-10-16T22:16:07;20.15;;;9.85;;
56130;SDS011;42000;44.774;20.506;2022-10-16T22:18:33;18.30;;;9.73;;
56130;SDS011;42000;44.774;20.506;2022-10-16T22:21:00;16.38;;;10.20;;
56130;SDS011;42000;44.774;20.506;2022-10-16T22:23:26;17.58;;;10.25;;
56130;SDS011;42000;44.774;20.506;2022-10-16T22:25:57;20.42;;;10.07;;
56130;SDS011;42000;44.774;20.506;2022-10-16T22:28:23;16.08;;;10.10;;
56130;SDS011;42000;44.774;20.506;2022-10-16T22:30:49;16.98;;;9.85;;
56130;SDS011;42000;44.774;20.506;2022-10-16T22:33:15;18.40;;;10.07;;
56130;SDS011;42000;44.774;20.506;2022-10-16T22:35:41;20.73;;;10.20;;
56130;SDS011;42000;44.774;20.506;2022-10-16T22:38:07;17.02;;;9.90;;
56130;SDS011;42000;44.774;20.506;2022-10-16T22:40:36;14.95;;;9.40;;
56130;SDS011;42000;44.774;20.506;2022-10-16T22:43:03;19.65;;;11.30;;
56130;SDS011;42000;44.774;20.506;2022-10-16T22:45:29;20.17;;;11.05;;
56130;SDS011;42000;44.774;20.506;2022-10-16T22:47:56;19.50;;;10.52;;
56130;SDS011;42000;44.774;20.506;2022-10-16T22:50:22;14.20;;;8.93;;
56130;SDS011;42000;44.774;20.506;2022-10-16T22:52:48;20.70;;;9.48;;
56130;SDS011;42000;44.774;20.506;2022-10-16T22:55:14;18.08;;;9.32;;
56130;SDS011;42000;44.774;20.506;2022-10-16T22:57:40;17.05;;;9.75;;
56130;SDS011;42000;44.774;20.506;2022-10-16T23:00:07;17.42;;;9.80;;
56130;SDS011;42000;44.774;20.506;2022-10-16T23:02:34;17.42;;;9.52;;
56130;SDS011;42000;44.774;20.506;2022-10-16T23:05:00;16.15;;;8.90;;
56130;SDS011;42000;44.774;20.506;2022-10-16T23:07:26;16.15;;;9.20;;
56130;SDS011;42000;44.774;20.506;2022-10-16T23:09:52;15.60;;;9.23;;
56130;SDS011;42000;44.774;20.506;2022-10-16T23:12:19;14.55;;;8.93;;
56130;SDS011;42000;44.774;20.506;2022-10-16T23:14:47;19.48;;;9.10;;
56130;SDS011;42000;44.774;20.506;2022-10-16T23:17:13;15.50;;;9.55;;
56130;SDS011;42000;44.774;20.506;2022-10-16T23:19:39;17.33;;;9.63;;
56130;SDS011;42000;44.774;20.506;2022-10-16T23:22:05;16.90;;;9.65;;
56130;SDS011;42000;44.774;20.506;2022-10-16T23:24:31;16.25;;;9.50;;
56130;SDS011;42000;44.774;20.506;2022-10-16T23:26:57;19.50;;;9.63;;
56130;SDS011;42000;44.774;20.506;2022-10-16T23:29:23;14.70;;;8.90;;
56130;SDS011;42000;44.774;20.506;2022-10-16T23:31:49;15.30;;;9.68;;
56130;SDS011;42000;44.774;20.506;2022-10-16T23:34:15;16.70;;;9.73;;
56130;SDS011;42000;44.774;20.506;2022-10-16T23:36:41;16.80;;;9.57;;
56130;SDS011;42000;44.774;20.506;2022-10-16T23:39:08;16.83;;;9.52;;
56130;SDS011;42000;44.774;20.506;2022-10-16T23:41:34;14.73;;;8.63;;
56130;SDS011;42000;44.774;20.506;2022-10-16T23:44:00;15.43;;;9.00;;
56130;SDS011;42000;44.774;20.506;2022-10-16T23:46:26;13.82;;;8.60;;
56130;SDS011;42000;44.774;20.506;2022-10-16T23:48:52;14.30;;;8.25;;
56130;SDS011;42000;44.774;20.506;2022-10-16T23:51:18;15.15;;;8.90;;
56130;SDS011;42000;44.774;20.506;2022-10-16T23:53:45;16.40;;;8.45;;
56130;SDS011;42000;44.774;20.506;2022-10-16T23:56:11;15.65;;;8.18;;
56130;SDS011;42000;44.774;20.506;2022-10-16T23:58:37;15.38;;;9.43;;
